createdAt,value
2018-09-22T00:00:27.923Z,2.10
2018-09-22T00:01:27.951Z,2.20
2018-09-22T00:02:27.935Z,2.30
2018-09-22T00:03:27.961Z,2.50
2018-09-22T00:04:28.293Z,2.10
2018-09-22T00:05:27.952Z,2.50
2018-09-22T00:06:27.996Z,2.40
2018-09-22T00:07:27.916Z,2.60
2018-09-22T00:08:27.887Z,2.40
2018-09-22T00:09:29.157Z,2.30
2018-09-22T00:10:28.134Z,2.20
2018-09-22T00:11:27.851Z,2.00
2018-09-22T00:12:27.834Z,2.10
2018-09-22T00:13:27.936Z,2.40
2018-09-22T00:14:27.883Z,2.10
2018-09-22T00:15:27.851Z,2.50
2018-09-22T00:16:27.843Z,2.70
2018-09-22T00:17:29.677Z,2.40
2018-09-22T00:18:30.113Z,2.20
2018-09-22T00:19:27.792Z,2.10
2018-09-22T00:20:28.662Z,2.10
2018-09-22T00:21:27.981Z,2.30
2018-09-22T00:22:27.784Z,2.30
2018-09-22T00:23:28.112Z,2.40
2018-09-22T00:24:28.919Z,2.30
2018-09-22T00:25:27.798Z,2.40
2018-09-22T00:26:28.561Z,2.30
2018-09-22T00:27:28.553Z,2.00
2018-09-22T00:28:28.468Z,2.50
2018-09-22T00:29:28.563Z,2.40
2018-09-22T00:30:29.367Z,2.30
2018-09-22T00:31:28.988Z,2.30
2018-09-22T00:32:29.369Z,2.20
2018-09-22T00:33:28.862Z,2.60
2018-09-22T00:34:28.915Z,2.90
2018-09-22T00:35:29.410Z,2.40
2018-09-22T00:36:29.370Z,2.40
2018-09-22T00:37:28.908Z,2.60
2018-09-22T00:38:29.493Z,2.20
2018-09-22T00:39:28.832Z,2.40
2018-09-22T00:40:28.921Z,2.20
2018-09-22T00:41:27.710Z,2.90
2018-09-22T00:42:29.699Z,2.40
2018-09-22T00:43:27.716Z,2.50
2018-09-22T00:44:27.684Z,2.00
2018-09-22T00:45:27.716Z,2.50
2018-09-22T00:46:27.726Z,2.40
2018-09-22T00:47:27.685Z,2.70
2018-09-22T00:48:27.673Z,2.50
2018-09-22T00:49:27.678Z,2.50
2018-09-22T00:50:27.667Z,2.60
2018-09-22T00:51:27.706Z,2.10
2018-09-22T00:52:27.650Z,2.50
2018-09-22T00:53:27.642Z,2.60
2018-09-22T00:54:27.645Z,2.50
2018-09-22T00:55:27.636Z,2.10
2018-09-22T00:56:27.636Z,2.60
2018-09-22T00:57:27.663Z,2.60
2018-09-22T00:58:27.645Z,2.50
2018-09-22T00:59:27.657Z,2.10
2018-09-22T01:00:27.611Z,3.10
2018-09-22T01:01:27.651Z,2.40
2018-09-22T01:02:27.639Z,2.50
2018-09-22T01:03:27.600Z,2.50
2018-09-22T01:04:27.590Z,2.20
2018-09-22T01:05:27.604Z,2.50
2018-09-22T01:06:27.584Z,2.70
2018-09-22T01:07:27.580Z,2.10
2018-09-22T01:08:27.620Z,2.50
2018-09-22T01:09:27.605Z,2.30
2018-09-22T01:10:27.606Z,2.40
2018-09-22T01:11:27.562Z,2.20
2018-09-22T01:12:27.575Z,2.70
2018-09-22T01:13:27.575Z,2.30
2018-09-22T01:14:27.566Z,2.40
2018-09-22T01:15:27.617Z,2.30
2018-09-22T01:16:27.590Z,2.00
2018-09-22T01:17:27.550Z,2.30
2018-09-22T01:18:27.554Z,2.70
2018-09-22T01:19:27.550Z,2.50
2018-09-22T01:20:27.558Z,2.80
2018-09-22T01:21:27.538Z,2.70
2018-09-22T01:22:27.516Z,2.60
2018-09-22T01:23:27.522Z,2.20
2018-09-22T01:24:27.524Z,2.20
2018-09-22T01:25:27.508Z,2.50
2018-09-22T01:26:27.516Z,2.40
2018-09-22T01:27:27.522Z,2.20
2018-09-22T01:28:27.496Z,2.40
2018-09-22T01:29:27.489Z,2.50
2018-09-22T01:30:27.496Z,2.60
2018-09-22T01:31:27.484Z,2.60
2018-09-22T01:32:27.478Z,2.60
2018-09-22T01:33:27.484Z,2.30
2018-09-22T01:34:27.462Z,2.40
2018-09-22T01:35:27.455Z,2.60
2018-09-22T01:36:27.490Z,2.50
2018-09-22T01:37:27.474Z,2.40
2018-09-22T01:38:27.464Z,2.50
2018-09-22T01:39:27.456Z,2.40
2018-09-22T01:40:27.431Z,2.50
2018-09-22T01:41:27.446Z,2.80
2018-09-22T01:42:27.446Z,2.50
2018-09-22T01:43:27.452Z,2.50
2018-09-22T01:44:27.410Z,2.30
2018-09-22T01:45:27.451Z,2.40
2018-09-22T01:46:27.436Z,2.50
2018-09-22T01:47:27.418Z,2.50
2018-09-22T01:48:27.426Z,2.60
2018-09-22T01:49:27.390Z,2.30
2018-09-22T01:50:27.393Z,3.00
2018-09-22T01:51:27.394Z,2.60
2018-09-22T01:52:34.243Z,2.90
2018-09-22T01:53:27.406Z,2.50
2018-09-22T01:54:27.366Z,2.50
2018-09-22T01:55:27.390Z,2.90
2018-09-22T01:56:27.378Z,2.70
2018-09-22T01:57:43.124Z,2.80
2018-09-22T01:58:27.384Z,2.30
2018-09-22T01:59:27.374Z,2.40
2018-09-22T02:00:27.340Z,2.70
2018-09-22T02:01:27.354Z,2.40
2018-09-22T02:02:27.355Z,2.30
2018-09-22T02:03:27.333Z,2.40
2018-09-22T02:04:27.326Z,2.30
2018-09-22T02:05:27.358Z,2.40
2018-09-22T02:06:27.340Z,2.30
2018-09-22T02:07:27.346Z,2.80
2018-09-22T02:08:27.300Z,2.40
2018-09-22T02:09:27.324Z,2.40
2018-09-22T02:10:27.324Z,2.30
2018-09-22T02:11:27.320Z,2.00
2018-09-22T02:12:27.311Z,2.30
2018-09-22T02:13:27.312Z,2.10
2018-09-22T02:14:27.286Z,2.40
2018-09-22T02:15:27.272Z,2.30
2018-09-22T02:16:27.272Z,2.10
2018-09-22T02:17:29.290Z,2.70
2018-09-22T02:18:27.273Z,2.10
2018-09-22T02:19:27.252Z,2.40
2018-09-22T02:20:27.262Z,2.40
2018-09-22T02:21:27.255Z,2.10
2018-09-22T02:22:27.238Z,2.10
2018-09-22T02:23:27.241Z,2.40
2018-09-22T02:24:27.246Z,2.20
2018-09-22T02:25:27.237Z,2.30
2018-09-22T02:26:27.246Z,2.30
2018-09-22T02:27:27.232Z,2.10
2018-09-22T02:28:27.208Z,2.30
2018-09-22T02:29:27.266Z,2.30
2018-09-22T02:30:27.257Z,1.80
2018-09-22T02:31:27.204Z,2.20
2018-09-22T02:32:27.242Z,2.00
2018-09-22T02:33:27.191Z,2.40
2018-09-22T02:34:27.193Z,2.40
2018-09-22T02:35:27.212Z,2.40
2018-09-22T02:36:27.217Z,2.20
2018-09-22T02:37:27.191Z,2.00
2018-09-22T02:38:27.174Z,2.50
2018-09-22T02:39:27.160Z,2.30
2018-09-22T02:40:27.204Z,2.20
2018-09-22T02:41:27.206Z,2.40
2018-09-22T02:42:27.205Z,2.90
2018-09-22T02:43:27.156Z,2.50
2018-09-22T02:44:27.146Z,2.30
2018-09-22T02:45:27.137Z,2.30
2018-09-22T02:46:27.135Z,2.30
2018-09-22T02:47:27.152Z,2.50
2018-09-22T02:48:27.133Z,2.40
2018-09-22T02:49:27.155Z,2.30
2018-09-22T02:50:27.142Z,2.60
2018-09-22T02:51:27.138Z,2.20
2018-09-22T02:52:27.110Z,2.30
2018-09-22T02:53:27.107Z,2.50
2018-09-22T02:54:27.138Z,2.30
2018-09-22T02:55:27.105Z,2.70
2018-09-22T02:56:27.112Z,2.40
2018-09-22T02:57:27.103Z,2.40
2018-09-22T02:58:27.074Z,2.30
2018-09-22T02:59:27.079Z,2.70
2018-09-22T03:00:27.076Z,2.70
2018-09-22T03:01:27.135Z,3.10
2018-09-22T03:02:27.093Z,2.90
2018-09-22T03:03:27.150Z,2.60
2018-09-22T03:04:27.040Z,2.60
2018-09-22T03:05:27.053Z,2.90
2018-09-22T03:06:27.039Z,2.70
2018-09-22T03:07:27.027Z,3.10
2018-09-22T03:08:27.048Z,2.80
2018-09-22T03:09:27.016Z,3.10
2018-09-22T03:10:27.040Z,3.50
2018-09-22T03:11:29.651Z,3.20
2018-09-22T03:12:27.019Z,3.30
2018-09-22T03:13:27.017Z,2.90
2018-09-22T03:14:27.023Z,3.10
2018-09-22T03:15:27.063Z,3.20
2018-09-22T03:16:27.010Z,3.30
2018-09-22T03:17:27.006Z,3.70
2018-09-22T03:18:26.985Z,3.50
2018-09-22T03:19:26.987Z,3.20
2018-09-22T03:20:26.983Z,3.70
2018-09-22T03:21:27.024Z,3.30
2018-09-22T03:22:27.020Z,3.40
2018-09-22T03:23:47.980Z,3.80
2018-09-22T03:24:26.961Z,3.50
2018-09-22T03:25:26.965Z,3.70
2018-09-22T03:26:26.973Z,3.70
2018-09-22T03:27:26.947Z,3.70
2018-09-22T03:28:26.962Z,3.80
2018-09-22T03:29:26.933Z,3.80
2018-09-22T03:30:26.931Z,3.80
2018-09-22T03:31:26.921Z,3.80
2018-09-22T03:32:26.936Z,4.00
2018-09-22T03:33:26.953Z,3.20
2018-09-22T03:34:26.908Z,3.70
2018-09-22T03:35:26.908Z,3.60
2018-09-22T03:36:27.101Z,3.30
2018-09-22T03:37:26.925Z,3.70
2018-09-22T03:38:26.899Z,3.70
2018-09-22T03:39:26.872Z,3.70
2018-09-22T03:40:26.883Z,3.30
2018-09-22T03:41:26.866Z,3.60
2018-09-22T03:42:26.889Z,3.70
2018-09-22T03:43:26.864Z,4.10
2018-09-22T03:44:26.879Z,4.20
2018-09-22T03:45:26.861Z,3.50
2018-09-22T03:46:26.850Z,3.90
2018-09-22T03:47:26.835Z,3.50
2018-09-22T03:48:26.839Z,3.60
2018-09-22T03:49:26.826Z,3.80
2018-09-22T03:50:26.850Z,3.70
2018-09-22T03:51:26.825Z,3.10
2018-09-22T03:52:26.850Z,3.20
2018-09-22T03:53:26.848Z,3.50
2018-09-22T03:54:26.803Z,3.60
2018-09-22T03:55:26.807Z,3.50
2018-09-22T03:56:26.794Z,3.20
2018-09-22T03:57:26.803Z,3.40
2018-09-22T03:58:26.806Z,3.70
2018-09-22T03:59:26.793Z,4.00
2018-09-22T04:00:26.789Z,3.50
2018-09-22T04:01:26.788Z,3.40
2018-09-22T04:02:26.780Z,3.80
2018-09-22T04:03:47.804Z,3.50
2018-09-22T04:04:26.823Z,3.80
2018-09-22T04:05:26.807Z,3.20
2018-09-22T04:06:26.745Z,3.20
2018-09-22T04:07:26.756Z,3.20
2018-09-22T04:09:26.743Z,3.40
2018-09-22T04:10:26.743Z,3.50
2018-09-22T04:11:26.761Z,3.40
2018-09-22T04:12:26.745Z,3.40
2018-09-22T04:13:33.744Z,3.10
2018-09-22T04:14:26.708Z,3.00
2018-09-22T04:15:26.715Z,3.30
2018-09-22T04:16:26.693Z,2.80
2018-09-22T04:17:26.717Z,3.20
2018-09-22T04:18:26.691Z,3.20
2018-09-22T04:19:26.719Z,3.10
2018-09-22T04:20:26.678Z,3.20
2018-09-22T04:21:41.213Z,3.20
2018-09-22T04:22:26.722Z,3.80
2018-09-22T04:23:26.699Z,3.30
2018-09-22T04:24:26.666Z,3.30
2018-09-22T04:25:26.660Z,3.00
2018-09-22T04:26:50.226Z,3.10
2018-09-22T04:27:26.674Z,3.40
2018-09-22T04:28:26.659Z,3.30
2018-09-22T04:29:26.634Z,3.20
2018-09-22T04:30:26.669Z,3.30
2018-09-22T04:31:26.623Z,3.20
2018-09-22T04:32:33.227Z,3.60
2018-09-22T04:33:26.779Z,3.10
2018-09-22T04:34:26.627Z,2.90
2018-09-22T04:35:26.615Z,3.10
2018-09-22T04:36:26.619Z,3.10
2018-09-22T04:37:26.604Z,3.00
2018-09-22T04:38:26.591Z,2.90
2018-09-22T04:39:26.599Z,2.60
2018-09-22T04:40:26.607Z,3.10
2018-09-22T04:41:26.573Z,2.70
2018-09-22T04:42:26.605Z,3.40
2018-09-22T04:43:26.614Z,3.00
2018-09-22T04:44:26.563Z,3.00
2018-09-22T04:45:26.570Z,2.50
2018-09-22T04:46:26.556Z,2.90
2018-09-22T04:47:26.592Z,2.90
2018-09-22T04:48:26.570Z,3.00
2018-09-22T04:49:26.549Z,3.30
2018-09-22T04:50:26.565Z,2.70
2018-09-22T04:51:26.563Z,3.30
2018-09-22T04:52:26.527Z,3.40
2018-09-22T04:53:26.530Z,3.30
2018-09-22T04:54:26.534Z,3.10
2018-09-22T04:55:26.541Z,2.70
2018-09-22T04:56:26.501Z,3.00
2018-09-22T04:57:26.495Z,3.10
2018-09-22T04:58:26.497Z,3.20
2018-09-22T04:59:26.534Z,2.80
2018-09-22T05:00:26.507Z,3.20
2018-09-22T05:01:26.531Z,3.00
2018-09-22T05:02:26.470Z,2.60
2018-09-22T05:03:26.483Z,3.50
2018-09-22T05:04:26.489Z,3.30
2018-09-22T05:05:26.466Z,3.30
2018-09-22T05:06:26.481Z,3.20
2018-09-22T05:07:26.480Z,3.20
2018-09-22T05:08:26.444Z,3.00
2018-09-22T05:09:26.445Z,3.20
2018-09-22T05:10:26.471Z,3.80
2018-09-22T05:11:26.449Z,3.70
2018-09-22T05:12:26.515Z,3.70
2018-09-22T05:13:26.450Z,3.20
2018-09-22T05:14:26.482Z,3.50
2018-09-22T05:15:26.453Z,3.30
2018-09-22T05:16:26.431Z,3.30
2018-09-22T05:17:26.493Z,3.60
2018-09-22T05:18:26.431Z,3.10
2018-09-22T05:19:26.409Z,3.20
2018-09-22T05:20:26.414Z,2.60
2018-09-22T05:21:26.418Z,2.90
2018-09-22T05:22:26.408Z,2.90
2018-09-22T05:23:26.392Z,3.40
2018-09-22T05:24:26.403Z,2.80
2018-09-22T05:25:26.393Z,2.70
2018-09-22T05:26:26.369Z,3.60
2018-09-22T05:27:26.377Z,3.00
2018-09-22T05:28:26.352Z,2.90
2018-09-22T05:29:26.389Z,3.10
2018-09-22T05:30:26.355Z,3.00
2018-09-22T05:31:26.356Z,2.80
2018-09-22T05:32:26.369Z,2.90
2018-09-22T05:33:26.393Z,2.70
2018-09-22T05:34:26.357Z,2.80
2018-09-22T05:35:27.977Z,2.50
2018-09-22T05:36:27.468Z,3.10
2018-09-22T05:37:27.158Z,3.10
2018-09-22T05:38:27.949Z,3.30
2018-09-22T05:39:27.372Z,2.90
2018-09-22T05:40:27.095Z,3.00
2018-09-22T05:41:27.947Z,3.30
2018-09-22T05:42:29.359Z,3.30
2018-09-22T05:43:28.990Z,3.00
2018-09-22T05:44:28.233Z,3.20
2018-09-22T05:45:27.400Z,3.50
2018-09-22T05:46:26.982Z,3.30
2018-09-22T05:47:27.913Z,3.30
2018-09-22T05:48:38.250Z,3.10
2018-09-22T05:49:27.074Z,3.30
2018-09-22T05:50:27.928Z,3.10
2018-09-22T05:51:27.393Z,3.10
2018-09-22T05:52:27.025Z,3.40
2018-09-22T05:53:27.978Z,3.30
2018-09-22T05:54:27.431Z,3.30
2018-09-22T05:55:26.987Z,3.30
2018-09-22T05:56:27.991Z,3.50
2018-09-22T05:57:27.966Z,3.70
2018-09-22T05:58:27.390Z,3.70
2018-09-22T05:59:27.825Z,3.40
2018-09-22T06:00:30.808Z,3.20
2018-09-22T06:01:27.319Z,3.70
2018-09-22T06:02:27.835Z,3.60
2018-09-22T06:03:27.497Z,3.20
2018-09-22T06:04:34.276Z,3.30
2018-09-22T06:05:26.212Z,3.10
2018-09-22T06:06:26.183Z,3.70
2018-09-22T06:07:26.226Z,3.90
2018-09-22T06:08:26.172Z,3.00
2018-09-22T06:09:26.209Z,3.70
2018-09-22T06:10:26.166Z,2.90
2018-09-22T06:11:26.178Z,3.40
2018-09-22T06:12:26.852Z,3.70
2018-09-22T06:13:26.158Z,3.30
2018-09-22T06:14:26.187Z,3.30
2018-09-22T06:15:26.129Z,3.40
2018-09-22T06:16:26.169Z,3.10
2018-09-22T06:17:27.264Z,3.00
2018-09-22T06:18:26.936Z,3.30
2018-09-22T06:19:27.647Z,3.20
2018-09-22T06:20:26.175Z,3.20
2018-09-22T06:21:26.893Z,3.60
2018-09-22T06:22:26.147Z,3.20
2018-09-22T06:23:26.882Z,2.90
2018-09-22T06:24:27.061Z,3.30
2018-09-22T06:25:27.626Z,3.30
2018-09-22T06:26:29.316Z,3.60
2018-09-22T06:27:26.908Z,3.40
2018-09-22T06:28:27.662Z,3.20
2018-09-22T06:29:26.062Z,3.10
2018-09-22T06:30:26.779Z,3.00
2018-09-22T06:31:27.574Z,4.10
2018-09-22T06:32:26.870Z,3.60
2018-09-22T06:33:27.647Z,3.40
2018-09-22T06:34:29.610Z,2.90
2018-09-22T06:35:26.042Z,2.60
2018-09-22T06:36:28.338Z,3.90
2018-09-22T06:37:29.214Z,3.70
2018-09-22T06:38:26.773Z,3.10
2018-09-22T06:39:26.786Z,3.00
2018-09-22T06:40:29.146Z,3.50
2018-09-22T06:41:27.113Z,3.10
2018-09-22T06:42:27.214Z,3.40
2018-09-22T06:43:27.191Z,3.10
2018-09-22T06:44:27.231Z,3.20
2018-09-22T06:45:27.587Z,3.10
2018-09-22T06:46:27.480Z,3.40
2018-09-22T06:47:26.795Z,3.20
2018-09-22T06:48:25.993Z,2.60
2018-09-22T06:49:26.808Z,3.50
2018-09-22T06:50:25.981Z,3.00
2018-09-22T06:51:26.003Z,2.90
2018-09-22T06:52:26.071Z,3.10
2018-09-22T06:53:27.069Z,3.10
2018-09-22T06:54:29.023Z,3.10
2018-09-22T06:55:27.094Z,3.20
2018-09-22T06:56:27.155Z,3.60
2018-09-22T06:57:25.945Z,3.30
2018-09-22T06:58:27.072Z,2.90
2018-09-22T06:59:27.711Z,3.40
2018-09-22T07:00:26.758Z,2.80
2018-09-22T07:01:26.689Z,3.20
2018-09-22T07:02:26.317Z,3.50
2018-09-22T07:03:25.970Z,3.00
2018-09-22T07:04:25.978Z,3.00
2018-09-22T07:05:25.939Z,3.50
2018-09-22T07:06:26.717Z,3.30
2018-09-22T07:07:25.926Z,3.30
2018-09-22T07:08:26.669Z,3.40
2018-09-22T07:09:27.950Z,3.10
2018-09-22T07:10:25.938Z,3.30
2018-09-22T07:11:26.650Z,2.70
2018-09-22T07:12:49.195Z,3.10
2018-09-22T07:13:26.717Z,2.80
2018-09-22T07:14:27.014Z,2.90
2018-09-22T07:15:26.605Z,3.00
2018-09-22T07:16:27.024Z,3.00
2018-09-22T07:17:25.861Z,3.00
2018-09-22T07:18:25.848Z,3.30
2018-09-22T07:19:25.878Z,3.00
2018-09-22T07:20:25.834Z,3.30
2018-09-22T07:21:25.861Z,3.30
2018-09-22T07:22:25.828Z,3.60
2018-09-22T07:23:25.838Z,3.10
2018-09-22T07:24:25.814Z,3.00
2018-09-22T07:25:25.858Z,3.40
2018-09-22T08:08:18.122Z,3.20
2018-09-22T08:09:17.946Z,2.70
2018-09-22T08:11:12.199Z,3.00
2018-09-22T08:13:26.704Z,2.90
2018-09-22T08:17:15.928Z,3.00
2018-09-22T08:19:32.994Z,3.20
2018-09-22T08:23:27.850Z,3.40
2018-09-22T08:24:16.515Z,3.10
2018-09-22T08:26:14.924Z,3.30
2018-09-22T08:27:10.546Z,2.90
2018-09-22T08:28:10.523Z,3.00
2018-09-22T08:29:10.547Z,3.20
2018-09-22T08:30:10.535Z,3.10
2018-09-22T08:31:10.523Z,3.40
2018-09-22T08:32:10.502Z,3.30
2018-09-22T08:33:12.517Z,3.30
2018-09-22T08:34:10.495Z,3.20
2018-09-22T08:35:10.533Z,3.00
2018-09-22T08:36:10.538Z,3.70
2018-09-22T08:37:10.555Z,3.50
2018-09-22T08:38:10.492Z,2.90
2018-09-22T08:39:11.278Z,3.20
2018-09-22T08:40:10.511Z,3.90
2018-09-22T08:41:10.490Z,2.60
2018-09-22T08:42:14.295Z,3.50
2018-09-22T08:43:10.474Z,3.30
2018-09-22T08:44:13.002Z,2.90
2018-09-22T08:45:10.475Z,2.90
2018-09-22T08:46:10.561Z,3.00
2018-09-22T08:47:10.451Z,3.10
2018-09-22T08:49:50.206Z,3.20
2018-09-22T08:51:58.023Z,2.90
2018-09-22T08:52:58.021Z,3.30
2018-09-22T08:54:54.043Z,2.90
2018-09-22T08:55:52.863Z,3.10
2018-09-22T09:00:57.968Z,2.80
2018-09-22T09:03:08.560Z,3.30
2018-09-22T09:04:09.461Z,3.30
2018-09-22T09:06:04.312Z,3.10
2018-09-22T09:07:04.082Z,3.00
2018-09-22T09:08:03.197Z,3.50
2018-09-22T09:10:37.827Z,3.40
2018-09-22T09:14:25.645Z,3.30
2018-09-22T09:15:25.878Z,3.40
2018-09-22T09:17:21.558Z,3.30
2018-09-22T09:18:21.256Z,2.80
2018-09-22T09:20:16.189Z,3.30
2018-09-22T09:21:15.325Z,3.10
2018-09-22T09:23:15.784Z,3.00
2018-09-22T09:25:40.900Z,3.10
2018-09-22T09:27:39.318Z,3.30
2018-09-22T09:28:40.360Z,3.20
2018-09-22T09:30:37.765Z,4.30
2018-09-22T09:32:48.554Z,3.10
2018-09-22T09:33:48.572Z,3.00
2018-09-22T09:35:44.180Z,3.50
2018-09-22T09:36:43.328Z,3.70
2018-09-22T09:38:40.808Z,3.30
2018-09-22T09:39:39.005Z,3.00
2018-09-22T09:41:32.683Z,2.70
2018-09-22T09:42:32.678Z,3.30
2018-09-22T09:44:26.775Z,3.10
2018-09-22T09:45:26.852Z,3.30
2018-09-22T09:47:21.486Z,3.20
2018-09-22T09:48:21.419Z,3.50
2018-09-22T09:50:17.043Z,3.20
2018-09-22T09:51:16.100Z,3.00
2018-09-22T09:53:11.739Z,2.90
2018-09-22T09:54:38.555Z,3.10
2018-09-22T09:55:11.579Z,3.40
2018-09-22T09:56:11.459Z,3.20
2018-09-22T09:57:10.778Z,3.30
2018-09-22T09:58:13.554Z,3.60
2018-09-22T09:59:11.491Z,3.30
2018-09-22T10:00:10.817Z,3.10
2018-09-22T10:01:12.491Z,3.20
2018-09-22T10:03:45.583Z,3.50
2018-09-22T10:06:00.585Z,3.10
2018-09-22T10:08:12.998Z,2.90
2018-09-22T10:09:15.018Z,2.80
2018-09-22T10:11:07.934Z,3.00
2018-09-22T10:12:07.747Z,2.80
2018-09-22T10:14:03.586Z,2.60
2018-09-22T10:15:03.008Z,2.40
2018-09-22T10:17:20.846Z,8.20
2018-09-22T10:19:12.885Z,5.00
2018-09-22T10:21:31.127Z,3.20
2018-09-22T10:24:03.890Z,3.30
